sensor_id;sensor_type;location;lat;lon;timestamp;temperature;humidity
38183;DHT22;23991;52.430;10.586;2023-11-19T00:02:25;6.20;87.80
38183;DHT22;23991;52.430;10.586;2023-11-19T00:04:51;6.20;87.80
38183;DHT22;23991;52.430;10.586;2023-11-19T00:07:16;6.20;87.90
38183;DHT22;23991;52.430;10.586;2023-11-19T00:09:42;6.20;88.00
38183;DHT22;23991;52.430;10.586;2023-11-19T00:12:09;6.20;88.10
38183;DHT22;23991;52.430;10.586;2023-11-19T00:14:35;6.20;88.10
38183;DHT22;23991;52.430;10.586;2023-11-19T00:17:00;6.20;88.10
38183;DHT22;23991;52.430;10.586;2023-11-19T00:19:26;6.30;88.10
38183;DHT22;23991;52.430;10.586;2023-11-19T00:21:52;6.30;88.10
38183;DHT22;23991;52.430;10.586;2023-11-19T00:24:18;6.30;88.10
38183;DHT22;23991;52.430;10.586;2023-11-19T00:26:44;6.30;88.20
38183;DHT22;23991;52.430;10.586;2023-11-19T00:29:10;6.30;88.20
38183;DHT22;23991;52.430;10.586;2023-11-19T00:31:36;6.30;88.20
38183;DHT22;23991;52.430;10.586;2023-11-19T00:34:02;6.30;88.30
38183;DHT22;23991;52.430;10.586;2023-11-19T00:36:28;6.30;88.30
38183;DHT22;23991;52.430;10.586;2023-11-19T00:38:54;6.30;88.20
38183;DHT22;23991;52.430;10.586;2023-11-19T00:41:20;6.30;88.30
38183;DHT22;23991;52.430;10.586;2023-11-19T00:43:45;6.30;88.30
38183;DHT22;23991;52.430;10.586;2023-11-19T00:46:11;6.40;88.30
38183;DHT22;23991;52.430;10.586;2023-11-19T00:48:37;6.30;88.20
38183;DHT22;23991;52.430;10.586;2023-11-19T00:51:03;6.30;88.20
38183;DHT22;23991;52.430;10.586;2023-11-19T00:53:32;6.30;88.30
38183;DHT22;23991;52.430;10.586;2023-11-19T00:55:59;6.30;88.30
38183;DHT22;23991;52.430;10.586;2023-11-19T00:58:25;6.40;88.30
38183;DHT22;23991;52.430;10.586;2023-11-19T01:00:51;6.40;88.30
38183;DHT22;23991;52.430;10.586;2023-11-19T01:03:16;6.40;88.40
38183;DHT22;23991;52.430;10.586;2023-11-19T01:05:42;6.40;88.40
38183;DHT22;23991;52.430;10.586;2023-11-19T01:08:09;6.40;88.50
38183;DHT22;23991;52.430;10.586;2023-11-19T01:10:36;6.40;88.50
38183;DHT22;23991;52.430;10.586;2023-11-19T01:13:02;6.40;88.50
38183;DHT22;23991;52.430;10.586;2023-11-19T01:15:31;6.40;88.50
38183;DHT22;23991;52.430;10.586;2023-11-19T01:17:57;6.40;88.50
38183;DHT22;23991;52.430;10.586;2023-11-19T01:20:23;6.40;88.50
38183;DHT22;23991;52.430;10.586;2023-11-19T01:22:50;6.40;88.50
38183;DHT22;23991;52.430;10.586;2023-11-19T01:25:16;6.40;88.60
38183;DHT22;23991;52.430;10.586;2023-11-19T01:27:41;6.40;88.60
38183;DHT22;23991;52.430;10.586;2023-11-19T01:30:08;6.40;88.60
38183;DHT22;23991;52.430;10.586;2023-11-19T01:32:35;6.40;88.60
38183;DHT22;23991;52.430;10.586;2023-11-19T01:35:03;6.40;88.60
38183;DHT22;23991;52.430;10.586;2023-11-19T01:37:29;6.40;88.60
38183;DHT22;23991;52.430;10.586;2023-11-19T01:39:55;6.40;88.50
38183;DHT22;23991;52.430;10.586;2023-11-19T01:42:20;6.50;88.50
38183;DHT22;23991;52.430;10.586;2023-11-19T01:44:59;6.40;88.50
38183;DHT22;23991;52.430;10.586;2023-11-19T01:47:28;6.40;88.50
38183;DHT22;23991;52.430;10.586;2023-11-19T01:49:56;6.40;88.50
38183;DHT22;23991;52.430;10.586;2023-11-19T01:52:23;6.40;88.60
38183;DHT22;23991;52.430;10.586;2023-11-19T01:54:49;6.40;88.60
38183;DHT22;23991;52.430;10.586;2023-11-19T01:57:15;6.50;88.60
38183;DHT22;23991;52.430;10.586;2023-11-19T01:59:41;6.50;88.60
38183;DHT22;23991;52.430;10.586;2023-11-19T02:02:07;6.50;88.60
38183;DHT22;23991;52.430;10.586;2023-11-19T02:04:33;6.50;88.60
38183;DHT22;23991;52.430;10.586;2023-11-19T02:07:00;6.50;88.70
38183;DHT22;23991;52.430;10.586;2023-11-19T02:09:26;6.50;88.80
38183;DHT22;23991;52.430;10.586;2023-11-19T02:11:53;6.50;88.80
38183;DHT22;23991;52.430;10.586;2023-11-19T02:14:23;6.50;88.90
38183;DHT22;23991;52.430;10.586;2023-11-19T02:16:51;6.50;88.90
38183;DHT22;23991;52.430;10.586;2023-11-19T02:19:19;6.50;89.00
38183;DHT22;23991;52.430;10.586;2023-11-19T02:21:45;6.60;89.00
38183;DHT22;23991;52.430;10.586;2023-11-19T02:24:12;6.60;89.10
38183;DHT22;23991;52.430;10.586;2023-11-19T02:26:44;6.60;89.10
38183;DHT22;23991;52.430;10.586;2023-11-19T02:29:11;6.60;89.20
38183;DHT22;23991;52.430;10.586;2023-11-19T02:31:38;6.60;89.20
38183;DHT22;23991;52.430;10.586;2023-11-19T02:34:04;6.60;89.30
38183;DHT22;23991;52.430;10.586;2023-11-19T02:36:31;6.60;89.40
38183;DHT22;23991;52.430;10.586;2023-11-19T02:38:58;6.60;89.50
38183;DHT22;23991;52.430;10.586;2023-11-19T02:41:23;6.70;89.60
38183;DHT22;23991;52.430;10.586;2023-11-19T02:43:49;6.70;89.70
38183;DHT22;23991;52.430;10.586;2023-11-19T02:46:15;6.70;89.90
38183;DHT22;23991;52.430;10.586;2023-11-19T02:48:43;6.70;89.90
38183;DHT22;23991;52.430;10.586;2023-11-19T02:51:10;6.80;90.00
38183;DHT22;23991;52.430;10.586;2023-11-19T02:53:36;6.80;90.10
38183;DHT22;23991;52.430;10.586;2023-11-19T02:56:05;6.80;90.10
38183;DHT22;23991;52.430;10.586;2023-11-19T02:58:37;6.80;90.30
38183;DHT22;23991;52.430;10.586;2023-11-19T03:01:04;6.80;90.40
38183;DHT22;23991;52.430;10.586;2023-11-19T03:03:38;6.90;90.60
38183;DHT22;23991;52.430;10.586;2023-11-19T03:06:06;6.90;90.80
38183;DHT22;23991;52.430;10.586;2023-11-19T03:08:32;7.00;91.00
38183;DHT22;23991;52.430;10.586;2023-11-19T03:10:58;7.10;91.10
38183;DHT22;23991;52.430;10.586;2023-11-19T03:13:24;7.20;91.30
38183;DHT22;23991;52.430;10.586;2023-11-19T03:15:50;7.20;91.40
38183;DHT22;23991;52.430;10.586;2023-11-19T03:18:16;7.30;91.60
38183;DHT22;23991;52.430;10.586;2023-11-19T03:20:42;7.30;91.70
38183;DHT22;23991;52.430;10.586;2023-11-19T03:23:08;7.40;91.80
38183;DHT22;23991;52.430;10.586;2023-11-19T03:25:33;7.40;91.80
38183;DHT22;23991;52.430;10.586;2023-11-19T03:28:00;7.40;92.00
38183;DHT22;23991;52.430;10.586;2023-11-19T03:30:27;7.50;92.10
38183;DHT22;23991;52.430;10.586;2023-11-19T03:32:57;7.50;92.10
38183;DHT22;23991;52.430;10.586;2023-11-19T03:35:23;7.50;92.10
38183;DHT22;23991;52.430;10.586;2023-11-19T03:37:49;7.60;92.20
38183;DHT22;23991;52.430;10.586;2023-11-19T03:40:16;7.60;92.30
38183;DHT22;23991;52.430;10.586;2023-11-19T03:42:42;7.60;92.30
38183;DHT22;23991;52.430;10.586;2023-11-19T03:45:08;7.60;92.40
38183;DHT22;23991;52.430;10.586;2023-11-19T03:47:36;7.60;92.40
38183;DHT22;23991;52.430;10.586;2023-11-19T03:50:02;7.70;92.50
38183;DHT22;23991;52.430;10.586;2023-11-19T03:52:28;7.70;92.50
38183;DHT22;23991;52.430;10.586;2023-11-19T03:54:54;7.70;92.50
38183;DHT22;23991;52.430;10.586;2023-11-19T03:57:21;7.80;92.60
38183;DHT22;23991;52.430;10.586;2023-11-19T03:59:47;7.80;92.60
38183;DHT22;23991;52.430;10.586;2023-11-19T04:02:13;7.80;92.60
38183;DHT22;23991;52.430;10.586;2023-11-19T04:04:38;7.80;92.70
38183;DHT22;23991;52.430;10.586;2023-11-19T04:07:05;7.80;92.70
38183;DHT22;23991;52.430;10.586;2023-11-19T04:09:31;7.80;92.70
38183;DHT22;23991;52.430;10.586;2023-11-19T04:11:58;7.80;92.70
38183;DHT22;23991;52.430;10.586;2023-11-19T04:14:24;7.90;92.80
38183;DHT22;23991;52.430;10.586;2023-11-19T04:16:50;7.90;92.80
38183;DHT22;23991;52.430;10.586;2023-11-19T04:19:17;7.90;92.80
38183;DHT22;23991;52.430;10.586;2023-11-19T04:21:42;7.90;92.70
38183;DHT22;23991;52.430;10.586;2023-11-19T04:24:09;7.90;92.80
38183;DHT22;23991;52.430;10.586;2023-11-19T04:26:43;8.00;92.80
38183;DHT22;23991;52.430;10.586;2023-11-19T04:29:15;8.00;92.80
38183;DHT22;23991;52.430;10.586;2023-11-19T04:31:41;8.00;92.80
38183;DHT22;23991;52.430;10.586;2023-11-19T04:34:07;8.00;92.80
38183;DHT22;23991;52.430;10.586;2023-11-19T04:36:33;8.00;92.80
38183;DHT22;23991;52.430;10.586;2023-11-19T04:39:02;8.00;92.80
38183;DHT22;23991;52.430;10.586;2023-11-19T04:41:28;8.00;92.80
38183;DHT22;23991;52.430;10.586;2023-11-19T04:43:54;8.00;92.80
38183;DHT22;23991;52.430;10.586;2023-11-19T04:46:20;8.00;92.80
38183;DHT22;23991;52.430;10.586;2023-11-19T04:48:46;8.10;92.80
38183;DHT22;23991;52.430;10.586;2023-11-19T04:51:12;8.10;92.80
38183;DHT22;23991;52.430;10.586;2023-11-19T04:53:37;8.10;92.80
38183;DHT22;23991;52.430;10.586;2023-11-19T04:56:10;8.10;92.80
38183;DHT22;23991;52.430;10.586;2023-11-19T04:58:36;8.10;92.90
38183;DHT22;23991;52.430;10.586;2023-11-19T05:01:03;8.10;92.90
38183;DHT22;23991;52.430;10.586;2023-11-19T05:03:33;8.10;92.90
38183;DHT22;23991;52.430;10.586;2023-11-19T05:05:59;8.20;92.90
38183;DHT22;23991;52.430;10.586;2023-11-19T05:08:24;8.20;93.00
38183;DHT22;23991;52.430;10.586;2023-11-19T05:10:50;8.20;93.00
38183;DHT22;23991;52.430;10.586;2023-11-19T05:13:16;8.30;93.00
38183;DHT22;23991;52.430;10.586;2023-11-19T05:15:42;8.30;93.00
38183;DHT22;23991;52.430;10.586;2023-11-19T05:18:08;8.30;93.10
38183;DHT22;23991;52.430;10.586;2023-11-19T05:20:34;8.40;93.10
38183;DHT22;23991;52.430;10.586;2023-11-19T05:22:59;8.40;93.10
38183;DHT22;23991;52.430;10.586;2023-11-19T05:25:28;8.40;93.10
38183;DHT22;23991;52.430;10.586;2023-11-19T05:27:53;8.40;93.10
38183;DHT22;23991;52.430;10.586;2023-11-19T05:30:19;8.40;93.20
38183;DHT22;23991;52.430;10.586;2023-11-19T05:32:45;8.50;93.20
38183;DHT22;23991;52.430;10.586;2023-11-19T05:35:11;8.50;93.20
38183;DHT22;23991;52.430;10.586;2023-11-19T05:37:37;8.50;93.20
38183;DHT22;23991;52.430;10.586;2023-11-19T05:40:05;8.60;93.20
38183;DHT22;23991;52.430;10.586;2023-11-19T05:42:40;8.50;93.20
38183;DHT22;23991;52.430;10.586;2023-11-19T05:45:05;8.50;93.30
38183;DHT22;23991;52.430;10.586;2023-11-19T05:47:33;8.50;93.20
38183;DHT22;23991;52.430;10.586;2023-11-19T05:49:59;8.50;93.30
38183;DHT22;23991;52.430;10.586;2023-11-19T05:52:24;8.60;93.30
38183;DHT22;23991;52.430;10.586;2023-11-19T05:54:50;8.60;93.30
38183;DHT22;23991;52.430;10.586;2023-11-19T05:57:17;8.60;93.30
38183;DHT22;23991;52.430;10.586;2023-11-19T05:59:49;8.60;93.30
38183;DHT22;23991;52.430;10.586;2023-11-19T06:02:15;8.70;93.30
38183;DHT22;23991;52.430;10.586;2023-11-19T06:04:41;8.70;93.30
38183;DHT22;23991;52.430;10.586;2023-11-19T06:07:09;8.80;93.40
38183;DHT22;23991;52.430;10.586;2023-11-19T06:09:35;8.80;93.30
38183;DHT22;23991;52.430;10.586;2023-11-19T06:12:00;8.80;93.30
38183;DHT22;23991;52.430;10.586;2023-11-19T06:14:27;8.80;93.30
38183;DHT22;23991;52.430;10.586;2023-11-19T06:16:53;8.80;93.30
38183;DHT22;23991;52.430;10.586;2023-11-19T06:19:19;8.90;93.30
38183;DHT22;23991;52.430;10.586;2023-11-19T06:21:44;8.80;93.30
38183;DHT22;23991;52.430;10.586;2023-11-19T06:24:10;8.80;93.30
38183;DHT22;23991;52.430;10.586;2023-11-19T06:26:36;8.80;93.30
38183;DHT22;23991;52.430;10.586;2023-11-19T06:29:01;8.80;93.30
38183;DHT22;23991;52.430;10.586;2023-11-19T06:31:27;8.90;93.30
38183;DHT22;23991;52.430;10.586;2023-11-19T06:33:53;8.80;93.30
38183;DHT22;23991;52.430;10.586;2023-11-19T06:36:18;8.90;93.30
38183;DHT22;23991;52.430;10.586;2023-11-19T06:38:44;8.90;93.30
38183;DHT22;23991;52.430;10.586;2023-11-19T06:41:10;8.90;93.40
38183;DHT22;23991;52.430;10.586;2023-11-19T06:43:37;8.90;93.40
38183;DHT22;23991;52.430;10.586;2023-11-19T06:46:03;8.90;93.40
38183;DHT22;23991;52.430;10.586;2023-11-19T06:48:32;8.90;93.40
38183;DHT22;23991;52.430;10.586;2023-11-19T06:50:57;8.90;93.40
38183;DHT22;23991;52.430;10.586;2023-11-19T06:53:23;9.00;93.40
38183;DHT22;23991;52.430;10.586;2023-11-19T06:55:48;9.00;93.50
38183;DHT22;23991;52.430;10.586;2023-11-19T06:58:14;9.00;93.40
38183;DHT22;23991;52.430;10.586;2023-11-19T07:00:40;9.00;93.50
38183;DHT22;23991;52.430;10.586;2023-11-19T07:03:06;9.10;93.50
38183;DHT22;23991;52.430;10.586;2023-11-19T07:05:36;9.10;93.60
38183;DHT22;23991;52.430;10.586;2023-11-19T07:08:05;9.10;93.60
38183;DHT22;23991;52.430;10.586;2023-11-19T07:10:32;9.20;93.70
38183;DHT22;23991;52.430;10.586;2023-11-19T07:12:59;9.20;93.70
38183;DHT22;23991;52.430;10.586;2023-11-19T07:15:25;9.30;93.70
38183;DHT22;23991;52.430;10.586;2023-11-19T07:17:50;9.30;93.70
38183;DHT22;23991;52.430;10.586;2023-11-19T07:20:16;9.40;93.80
38183;DHT22;23991;52.430;10.586;2023-11-19T07:22:45;9.40;93.80
38183;DHT22;23991;52.430;10.586;2023-11-19T07:25:13;9.50;93.80
38183;DHT22;23991;52.430;10.586;2023-11-19T07:27:39;9.60;93.80
38183;DHT22;23991;52.430;10.586;2023-11-19T07:30:05;9.60;93.80
38183;DHT22;23991;52.430;10.586;2023-11-19T07:32:33;9.70;93.90
38183;DHT22;23991;52.430;10.586;2023-11-19T07:34:58;9.80;93.90
38183;DHT22;23991;52.430;10.586;2023-11-19T07:37:25;9.80;93.90
38183;DHT22;23991;52.430;10.586;2023-11-19T07:39:51;9.90;93.90
38183;DHT22;23991;52.430;10.586;2023-11-19T07:42:16;10.00;93.90
38183;DHT22;23991;52.430;10.586;2023-11-19T07:44:43;10.10;94.00
38183;DHT22;23991;52.430;10.586;2023-11-19T07:47:09;10.20;93.90
38183;DHT22;23991;52.430;10.586;2023-11-19T07:49:34;10.30;93.90
38183;DHT22;23991;52.430;10.586;2023-11-19T07:52:00;10.40;93.80
38183;DHT22;23991;52.430;10.586;2023-11-19T07:54:26;10.50;93.70
38183;DHT22;23991;52.430;10.586;2023-11-19T07:56:52;10.60;93.70
38183;DHT22;23991;52.430;10.586;2023-11-19T07:59:18;10.60;93.60
38183;DHT22;23991;52.430;10.586;2023-11-19T08:01:43;10.80;93.50
38183;DHT22;23991;52.430;10.586;2023-11-19T08:04:09;10.80;93.30
38183;DHT22;23991;52.430;10.586;2023-11-19T08:06:35;10.90;93.10
38183;DHT22;23991;52.430;10.586;2023-11-19T08:09:01;11.00;92.90
38183;DHT22;23991;52.430;10.586;2023-11-19T08:11:27;11.10;92.80
38183;DHT22;23991;52.430;10.586;2023-11-19T08:13:52;11.20;92.50
38183;DHT22;23991;52.430;10.586;2023-11-19T08:16:18;11.30;92.20
38183;DHT22;23991;52.430;10.586;2023-11-19T08:18:44;11.50;91.70
38183;DHT22;23991;52.430;10.586;2023-11-19T08:21:09;11.60;91.00
38183;DHT22;23991;52.430;10.586;2023-11-19T08:23:36;11.80;90.50
38183;DHT22;23991;52.430;10.586;2023-11-19T08:26:02;11.90;89.40
38183;DHT22;23991;52.430;10.586;2023-11-19T08:28:28;12.00;88.50
38183;DHT22;23991;52.430;10.586;2023-11-19T08:30:54;12.20;88.00
38183;DHT22;23991;52.430;10.586;2023-11-19T08:33:19;12.30;87.10
38183;DHT22;23991;52.430;10.586;2023-11-19T08:35:48;12.40;85.90
38183;DHT22;23991;52.430;10.586;2023-11-19T08:38:13;12.50;85.10
38183;DHT22;23991;52.430;10.586;2023-11-19T08:40:39;12.70;84.80
38183;DHT22;23991;52.430;10.586;2023-11-19T08:43:04;12.90;83.40
38183;DHT22;23991;52.430;10.586;2023-11-19T08:45:30;13.10;82.80
38183;DHT22;23991;52.430;10.586;2023-11-19T08:47:57;13.20;82.10
38183;DHT22;23991;52.430;10.586;2023-11-19T08:50:23;13.30;81.40
38183;DHT22;23991;52.430;10.586;2023-11-19T08:52:49;13.30;80.80
38183;DHT22;23991;52.430;10.586;2023-11-19T08:55:14;13.40;80.20
38183;DHT22;23991;52.430;10.586;2023-11-19T08:57:40;13.40;80.10
38183;DHT22;23991;52.430;10.586;2023-11-19T09:00:06;13.70;79.40
38183;DHT22;23991;52.430;10.586;2023-11-19T09:02:34;13.80;78.40
38183;DHT22;23991;52.430;10.586;2023-11-19T09:05:00;14.00;77.30
38183;DHT22;23991;52.430;10.586;2023-11-19T09:07:27;14.10;76.90
38183;DHT22;23991;52.430;10.586;2023-11-19T09:09:53;14.00;76.20
38183;DHT22;23991;52.430;10.586;2023-11-19T09:12:19;14.10;76.30
38183;DHT22;23991;52.430;10.586;2023-11-19T09:14:44;14.50;75.10
38183;DHT22;23991;52.430;10.586;2023-11-19T09:17:11;14.90;73.30
38183;DHT22;23991;52.430;10.586;2023-11-19T09:19:37;15.20;71.40
38183;DHT22;23991;52.430;10.586;2023-11-19T09:22:04;15.40;70.00
38183;DHT22;23991;52.430;10.586;2023-11-19T09:24:29;15.70;68.70
38183;DHT22;23991;52.430;10.586;2023-11-19T09:26:55;16.20;67.50
38183;DHT22;23991;52.430;10.586;2023-11-19T09:29:21;16.20;66.40
38183;DHT22;23991;52.430;10.586;2023-11-19T09:31:47;16.50;65.80
38183;DHT22;23991;52.430;10.586;2023-11-19T09:34:13;17.00;63.80
38183;DHT22;23991;52.430;10.586;2023-11-19T09:36:38;17.50;61.90
38183;DHT22;23991;52.430;10.586;2023-11-19T09:39:12;17.60;60.80
38183;DHT22;23991;52.430;10.586;2023-11-19T09:41:40;17.60;60.20
38183;DHT22;23991;52.430;10.586;2023-11-19T09:44:08;17.50;60.30
38183;DHT22;23991;52.430;10.586;2023-11-19T09:46:34;17.50;60.50
38183;DHT22;23991;52.430;10.586;2023-11-19T09:49:01;17.70;59.70
38183;DHT22;23991;52.430;10.586;2023-11-19T09:51:29;18.00;58.50
38183;DHT22;23991;52.430;10.586;2023-11-19T09:53:54;18.00;58.40
38183;DHT22;23991;52.430;10.586;2023-11-19T09:56:20;17.90;58.70
38183;DHT22;23991;52.430;10.586;2023-11-19T09:58:46;18.00;58.10
38183;DHT22;23991;52.430;10.586;2023-11-19T10:01:12;17.70;59.00
38183;DHT22;23991;52.430;10.586;2023-11-19T10:03:39;18.10;58.20
38183;DHT22;23991;52.430;10.586;2023-11-19T10:06:07;18.00;58.10
38183;DHT22;23991;52.430;10.586;2023-11-19T10:08:33;18.20;57.90
38183;DHT22;23991;52.430;10.586;2023-11-19T10:10:59;18.30;57.70
38183;DHT22;23991;52.430;10.586;2023-11-19T10:13:28;18.50;57.20
38183;DHT22;23991;52.430;10.586;2023-11-19T10:15:55;18.50;56.40
38183;DHT22;23991;52.430;10.586;2023-11-19T10:18:26;18.30;56.90
38183;DHT22;23991;52.430;10.586;2023-11-19T10:20:52;18.30;56.60
38183;DHT22;23991;52.430;10.586;2023-11-19T10:23:19;18.10;57.80
38183;DHT22;23991;52.430;10.586;2023-11-19T10:25:45;18.40;57.40
38183;DHT22;23991;52.430;10.586;2023-11-19T10:28:10;18.60;56.30
38183;DHT22;23991;52.430;10.586;2023-11-19T10:30:36;18.80;55.90
38183;DHT22;23991;52.430;10.586;2023-11-19T10:33:09;18.70;55.80
38183;DHT22;23991;52.430;10.586;2023-11-19T10:35:50;19.00;55.30
38183;DHT22;23991;52.430;10.586;2023-11-19T10:38:19;19.40;54.70
38183;DHT22;23991;52.430;10.586;2023-11-19T10:40:45;19.60;53.20
38183;DHT22;23991;52.430;10.586;2023-11-19T10:43:11;20.20;52.40
38183;DHT22;23991;52.430;10.586;2023-11-19T10:45:37;20.60;50.80
38183;DHT22;23991;52.430;10.586;2023-11-19T10:48:04;21.00;49.70
38183;DHT22;23991;52.430;10.586;2023-11-19T10:50:37;20.70;49.40
38183;DHT22;23991;52.430;10.586;2023-11-19T10:53:05;20.20;50.80
38183;DHT22;23991;52.430;10.586;2023-11-19T10:55:36;20.40;50.80
38183;DHT22;23991;52.430;10.586;2023-11-19T10:58:08;20.10;50.90
38183;DHT22;23991;52.430;10.586;2023-11-19T11:00:54;19.50;52.10
38183;DHT22;23991;52.430;10.586;2023-11-19T11:03:22;19.80;52.20
38183;DHT22;23991;52.430;10.586;2023-11-19T11:05:52;20.00;51.10
38183;DHT22;23991;52.430;10.586;2023-11-19T11:08:19;20.10;50.90
38183;DHT22;23991;52.430;10.586;2023-11-19T11:10:54;20.30;50.60
38183;DHT22;23991;52.430;10.586;2023-11-19T11:13:22;19.90;51.30
38183;DHT22;23991;52.430;10.586;2023-11-19T11:15:50;20.10;50.30
38183;DHT22;23991;52.430;10.586;2023-11-19T11:18:16;20.60;49.80
38183;DHT22;23991;52.430;10.586;2023-11-19T11:20:44;21.00;48.10
38183;DHT22;23991;52.430;10.586;2023-11-19T11:26:14;20.70;48.70
38183;DHT22;23991;52.430;10.586;2023-11-19T11:29:03;20.60;49.00
38183;DHT22;23991;52.430;10.586;2023-11-19T11:39:22;20.00;50.30
38183;DHT22;23991;52.430;10.586;2023-11-19T11:45:01;20.10;49.20
38183;DHT22;23991;52.430;10.586;2023-11-19T11:50:15;20.20;49.40
38183;DHT22;23991;52.430;10.586;2023-11-19T11:58:03;20.20;49.10
38183;DHT22;23991;52.430;10.586;2023-11-19T12:00:33;20.00;49.50
38183;DHT22;23991;52.430;10.586;2023-11-19T12:03:03;20.10;49.90
38183;DHT22;23991;52.430;10.586;2023-11-19T12:05:30;20.30;49.30
38183;DHT22;23991;52.430;10.586;2023-11-19T12:07:56;20.10;49.60
38183;DHT22;23991;52.430;10.586;2023-11-19T12:10:25;20.10;50.00
38183;DHT22;23991;52.430;10.586;2023-11-19T12:12:59;19.90;50.30
38183;DHT22;23991;52.430;10.586;2023-11-19T12:15:25;19.60;51.10
38183;DHT22;23991;52.430;10.586;2023-11-19T12:17:55;19.70;50.90
38183;DHT22;23991;52.430;10.586;2023-11-19T12:20:25;19.70;50.90
38183;DHT22;23991;52.430;10.586;2023-11-19T12:22:51;19.50;51.60
38183;DHT22;23991;52.430;10.586;2023-11-19T12:25:18;19.50;51.40
38183;DHT22;23991;52.430;10.586;2023-11-19T12:27:49;19.80;50.80
38183;DHT22;23991;52.430;10.586;2023-11-19T12:30:22;20.00;50.40
38183;DHT22;23991;52.430;10.586;2023-11-19T12:32:48;20.10;50.00
38183;DHT22;23991;52.430;10.586;2023-11-19T12:35:14;20.10;50.10
38183;DHT22;23991;52.430;10.586;2023-11-19T12:37:45;19.80;50.10
38183;DHT22;23991;52.430;10.586;2023-11-19T12:40:18;19.30;51.50
38183;DHT22;23991;52.430;10.586;2023-11-19T12:42:51;19.00;51.50
38183;DHT22;23991;52.430;10.586;2023-11-19T12:45:17;18.80;52.50
38183;DHT22;23991;52.430;10.586;2023-11-19T12:47:44;18.80;52.80
38183;DHT22;23991;52.430;10.586;2023-11-19T12:50:12;19.00;52.40
38183;DHT22;23991;52.430;10.586;2023-11-19T12:52:38;19.20;52.00
38183;DHT22;23991;52.430;10.586;2023-11-19T12:55:05;19.40;51.60
38183;DHT22;23991;52.430;10.586;2023-11-19T12:57:53;19.40;51.50
38183;DHT22;23991;52.430;10.586;2023-11-19T13:00:27;19.70;51.00
38183;DHT22;23991;52.430;10.586;2023-11-19T13:02:55;19.60;50.90
38183;DHT22;23991;52.430;10.586;2023-11-19T13:05:30;19.60;50.90
38183;DHT22;23991;52.430;10.586;2023-11-19T13:07:59;19.50;51.50
38183;DHT22;23991;52.430;10.586;2023-11-19T13:10:26;19.40;51.70
38183;DHT22;23991;52.430;10.586;2023-11-19T13:13:06;19.50;51.30
38183;DHT22;23991;52.430;10.586;2023-11-19T13:15:36;19.50;51.50
38183;DHT22;23991;52.430;10.586;2023-11-19T13:18:02;19.70;51.50
38183;DHT22;23991;52.430;10.586;2023-11-19T13:20:29;19.40;51.40
38183;DHT22;23991;52.430;10.586;2023-11-19T13:23:02;19.40;51.30
38183;DHT22;23991;52.430;10.586;2023-11-19T13:25:28;19.10;52.30
38183;DHT22;23991;52.430;10.586;2023-11-19T13:27:55;18.90;52.60
38183;DHT22;23991;52.430;10.586;2023-11-19T13:30:22;18.80;52.80
38183;DHT22;23991;52.430;10.586;2023-11-19T13:32:48;18.70;53.00
38183;DHT22;23991;52.430;10.586;2023-11-19T13:35:15;18.50;53.30
38183;DHT22;23991;52.430;10.586;2023-11-19T13:37:40;18.40;53.60
38183;DHT22;23991;52.430;10.586;2023-11-19T13:40:07;18.30;54.00
38183;DHT22;23991;52.430;10.586;2023-11-19T13:42:38;18.40;53.50
38183;DHT22;23991;52.430;10.586;2023-11-19T13:47:40;18.10;53.90
38183;DHT22;23991;52.430;10.586;2023-11-19T13:50:14;18.20;54.20
38183;DHT22;23991;52.430;10.586;2023-11-19T13:52:43;18.10;54.20
38183;DHT22;23991;52.430;10.586;2023-11-19T13:55:10;18.20;54.30
38183;DHT22;23991;52.430;10.586;2023-11-19T13:57:37;18.00;54.30
38183;DHT22;23991;52.430;10.586;2023-11-19T14:00:04;18.00;54.60
38183;DHT22;23991;52.430;10.586;2023-11-19T14:02:39;18.10;54.50
38183;DHT22;23991;52.430;10.586;2023-11-19T14:05:05;17.90;54.60
38183;DHT22;23991;52.430;10.586;2023-11-19T14:07:31;17.90;54.70
38183;DHT22;23991;52.430;10.586;2023-11-19T14:09:56;17.90;55.10
38183;DHT22;23991;52.430;10.586;2023-11-19T14:12:22;17.90;55.00
38183;DHT22;23991;52.430;10.586;2023-11-19T14:14:48;17.80;55.00
38183;DHT22;23991;52.430;10.586;2023-11-19T14:17:13;17.80;55.40
38183;DHT22;23991;52.430;10.586;2023-11-19T14:19:43;17.80;55.20
38183;DHT22;23991;52.430;10.586;2023-11-19T14:22:09;17.80;55.20
38183;DHT22;23991;52.430;10.586;2023-11-19T14:24:35;18.00;55.20
38183;DHT22;23991;52.430;10.586;2023-11-19T14:27:01;18.20;54.50
38183;DHT22;23991;52.430;10.586;2023-11-19T14:29:27;18.10;54.70
38183;DHT22;23991;52.430;10.586;2023-11-19T14:31:56;18.00;54.90
38183;DHT22;23991;52.430;10.586;2023-11-19T14:34:22;18.20;54.70
38183;DHT22;23991;52.430;10.586;2023-11-19T14:36:48;18.10;55.10
38183;DHT22;23991;52.430;10.586;2023-11-19T14:39:15;18.20;54.80
38183;DHT22;23991;52.430;10.586;2023-11-19T14:41:42;18.20;55.10
38183;DHT22;23991;52.430;10.586;2023-11-19T14:44:07;18.10;55.30
38183;DHT22;23991;52.430;10.586;2023-11-19T14:46:35;18.30;54.90
38183;DHT22;23991;52.430;10.586;2023-11-19T14:49:00;18.00;55.60
38183;DHT22;23991;52.430;10.586;2023-11-19T14:51:26;18.00;55.70
38183;DHT22;23991;52.430;10.586;2023-11-19T14:53:52;17.90;55.90
38183;DHT22;23991;52.430;10.586;2023-11-19T14:56:18;17.80;56.10
38183;DHT22;23991;52.430;10.586;2023-11-19T14:58:43;17.80;56.50
38183;DHT22;23991;52.430;10.586;2023-11-19T15:01:13;17.70;56.80
38183;DHT22;23991;52.430;10.586;2023-11-19T15:03:39;17.60;57.10
38183;DHT22;23991;52.430;10.586;2023-11-19T15:06:06;17.60;57.10
38183;DHT22;23991;52.430;10.586;2023-11-19T15:08:35;17.60;57.10
38183;DHT22;23991;52.430;10.586;2023-11-19T15:11:00;17.50;57.00
38183;DHT22;23991;52.430;10.586;2023-11-19T15:13:27;17.50;57.70
38183;DHT22;23991;52.430;10.586;2023-11-19T15:15:53;17.40;58.80
38183;DHT22;23991;52.430;10.586;2023-11-19T15:18:20;17.30;59.50
38183;DHT22;23991;52.430;10.586;2023-11-19T15:20:46;17.00;60.70
38183;DHT22;23991;52.430;10.586;2023-11-19T15:23:13;17.10;60.80
38183;DHT22;23991;52.430;10.586;2023-11-19T15:25:39;16.90;61.10
38183;DHT22;23991;52.430;10.586;2023-11-19T15:28:05;16.80;61.40
38183;DHT22;23991;52.430;10.586;2023-11-19T15:30:30;16.80;61.70
38183;DHT22;23991;52.430;10.586;2023-11-19T15:32:56;16.80;61.50
38183;DHT22;23991;52.430;10.586;2023-11-19T15:35:22;16.60;61.70
38183;DHT22;23991;52.430;10.586;2023-11-19T15:37:48;16.50;62.50
38183;DHT22;23991;52.430;10.586;2023-11-19T15:40:14;16.50;62.90
38183;DHT22;23991;52.430;10.586;2023-11-19T15:42:40;16.30;63.80
38183;DHT22;23991;52.430;10.586;2023-11-19T15:45:06;16.30;64.10
38183;DHT22;23991;52.430;10.586;2023-11-19T15:47:35;16.10;64.80